Time;durP1;ratioP1;P1;durP2;ratioP2;P2;SDS_P1;SDS_P2;PMS_P1;PMS_P2;Temp;Humidity;BMP_temperature;BMP_pressure;BME280_temperature;BME280_humidity;BME280_pressure;Samples;Min_cycle;Max_cycle;Signal;HPM_P1;HPM_P2
2022/12/23 00:01:15;;;;;;;2.92;1.00;;;10.40;89.50;;;;;;4989170;28;20099;-62
2022/12/23 00:03:41;;;;;;;4.70;0.93;;;10.40;89.50;;;;;;4988077;28;20096;-60
2022/12/23 00:06:13;;;;;;;3.30;0.95;;;10.40;89.50;;;;;;4988285;28;20039;-62
2022/12/23 00:08:39;;;;;;;3.42;0.90;;;10.40;89.70;;;;;;4989315;28;20030;-62
2022/12/23 00:11:12;;;;;;;4.13;1.30;;;10.50;89.50;;;;;;4987263;28;20034;-61
2022/12/23 00:16:22;;;;;;;4.35;1.20;;;10.50;89.90;;;;;;4988428;28;20080;-62
2022/12/23 00:18:48;;;;;;;2.95;0.98;;;10.50;89.70;;;;;;4988720;28;20031;-62
2022/12/23 00:21:15;;;;;;;2.25;0.95;;;10.50;89.80;;;;;;4989004;28;20391;-62
2022/12/23 00:23:45;;;;;;;1.95;0.80;;;10.50;89.90;;;;;;4989260;28;20089;-62
2022/12/23 00:26:20;;;;;;;4.28;1.40;;;10.50;89.80;;;;;;4987876;28;20030;-62
2022/12/23 00:28:46;;;;;;;4.45;1.10;;;10.50;90.10;;;;;;4987892;28;20038;-64
2022/12/23 00:31:12;;;;;;;3.17;0.90;;;10.50;89.90;;;;;;4989039;28;20030;-62
2022/12/23 00:33:44;;;;;;;3.60;1.00;;;10.50;89.90;;;;;;4985362;28;20477;-63
2022/12/23 00:36:18;;;;;;;3.78;0.90;;;10.50;90.00;;;;;;4988076;28;20085;-62
2022/12/23 00:44:13;;;;;;;3.92;0.80;;;10.50;90.00;;;;;;4986917;28;20440;-61
2022/12/23 00:46:39;;;;;;;2.35;0.88;;;10.50;89.90;;;;;;4987215;28;20030;-61
2022/12/23 00:51:49;;;;;;;2.73;0.87;;;10.50;89.90;;;;;;4987701;28;20038;-60
2022/12/23 00:54:15;;;;;;;2.65;0.80;;;10.50;89.90;;;;;;4988396;28;20290;-62
2022/12/23 00:56:41;;;;;;;3.33;0.95;;;10.50;89.90;;;;;;4986663;28;20045;-63
2022/12/23 00:59:06;;;;;;;3.33;0.60;;;10.50;89.90;;;;;;4987424;28;20069;-61
2022/12/23 01:07:02;;;;;;;1.20;0.65;;;10.60;90.00;;;;;;4985778;28;20251;-61
2022/12/23 01:09:27;;;;;;;0.77;0.60;;;10.60;90.00;;;;;;4987119;28;20036;-60
2022/12/23 01:11:53;;;;;;;1.40;0.50;;;10.60;90.00;;;;;;4983312;28;20034;-61
2022/12/23 01:14:20;;;;;;;1.95;0.63;;;10.60;89.90;;;;;;4983611;28;20056;-61
2022/12/23 01:16:45;;;;;;;2.92;0.82;;;10.60;90.00;;;;;;4982716;28;20061;-59
2022/12/23 01:19:11;;;;;;;2.10;0.50;;;10.60;90.00;;;;;;4984551;28;20431;-61
2022/12/23 01:21:37;;;;;;;1.55;0.40;;;10.60;90.00;;;;;;4980452;28;20418;-60
2022/12/23 01:24:02;;;;;;;1.15;0.50;;;10.70;90.10;;;;;;4983375;28;20065;-61
2022/12/23 01:26:28;;;;;;;1.15;0.50;;;10.70;90.10;;;;;;4982127;28;20038;-62
2022/12/23 01:28:55;;;;;;;2.15;0.40;;;10.70;90.10;;;;;;4981941;28;20869;-61
2022/12/23 01:31:22;;;;;;;1.10;0.30;;;10.70;90.10;;;;;;4983192;28;20030;-61
2022/12/23 01:33:47;;;;;;;1.80;0.50;;;10.70;90.10;;;;;;4984018;28;20069;-61
2022/12/23 01:36:13;;;;;;;1.05;0.47;;;10.80;90.10;;;;;;4984561;28;20058;-59
2022/12/23 01:38:39;;;;;;;1.67;0.30;;;10.80;90.10;;;;;;4984171;28;20038;-62
2022/12/23 01:41:05;;;;;;;1.05;0.35;;;10.80;90.10;;;;;;4978742;28;20043;-61
2022/12/23 01:43:50;;;;;;;0.52;0.30;;;10.80;90.20;;;;;;4982508;28;20061;-59
2022/12/23 01:46:16;;;;;;;2.75;0.57;;;10.80;90.30;;;;;;4980849;28;20383;-60
2022/12/23 01:48:45;;;;;;;0.88;0.40;;;10.90;90.20;;;;;;4982558;28;20179;-62
2022/12/23 01:51:25;;;;;;;0.85;0.30;;;10.90;90.20;;;;;;4981082;28;20038;-61
2022/12/23 01:53:56;;;;;;;0.35;0.30;;;10.90;90.30;;;;;;4982102;28;20590;-62
2022/12/23 01:56:30;;;;;;;0.90;0.30;;;10.90;90.20;;;;;;4980523;28;20068;-62
2022/12/23 02:04:42;;;;;;;0.50;0.30;;;11.00;90.20;;;;;;4983535;28;20040;-61
2022/12/23 02:09:51;;;;;;;0.45;0.20;;;11.10;90.20;;;;;;4986041;28;20037;-61
2022/12/23 02:12:40;;;;;;;0.50;0.30;;;11.10;90.20;;;;;;4985571;28;20030;-62
2022/12/23 02:18:32;;;;;;;0.68;0.30;;;11.10;90.40;;;;;;4983638;28;20505;-60
2022/12/23 02:21:22;;;;;;;0.20;0.10;;;11.20;90.20;;;;;;4979964;28;20053;-61
2022/12/23 02:24:12;;;;;;;0.85;0.10;;;11.20;90.40;;;;;;4983297;28;20046;-62
2022/12/23 02:26:52;;;;;;;0.65;0.20;;;11.20;90.40;;;;;;4983255;28;20038;-60
2022/12/23 02:29:59;;;;;;;0.20;0.13;;;11.20;90.40;;;;;;4982511;28;20045;-62
2022/12/23 02:32:44;;;;;;;0.95;0.17;;;11.20;90.20;;;;;;4950436;28;20261;-62
2022/12/23 02:35:11;;;;;;;0.20;0.10;;;11.30;90.40;;;;;;4977047;28;20057;-62
2022/12/23 02:38:12;;;;;;;0.77;0.10;;;11.30;90.20;;;;;;4982447;28;20391;-60
2022/12/23 02:40:47;;;;;;;0.05;0.03;;;11.30;90.40;;;;;;4982018;28;20034;-58
2022/12/23 02:43:32;;;;;;;0.10;0.10;;;11.30;90.20;;;;;;4983155;28;20514;-60
2022/12/23 02:46:06;;;;;;;0.13;0.10;;;11.40;90.50;;;;;;4982704;28;20446;-61
2022/12/23 02:48:46;;;;;;;0.15;0.10;;;11.40;90.40;;;;;;4980300;28;20038;-60
2022/12/23 02:51:14;;;;;;;0.10;0.10;;;11.40;90.40;;;;;;4983083;28;20465;-59
2022/12/23 02:53:47;;;;;;;0.80;0.10;;;11.40;90.40;;;;;;4981787;28;20506;-59
2022/12/23 02:56:15;;;;;;;0.20;0.15;;;11.50;90.40;;;;;;4981253;28;20085;-61
2022/12/23 02:58:45;;;;;;;0.10;0.10;;;11.50;90.40;;;;;;4979996;28;20125;-62
2022/12/23 03:01:14;;;;;;;0.35;0.10;;;11.50;90.40;;;;;;4981000;28;20034;-60
2022/12/23 03:03:41;;;;;;;0.10;0.10;;;11.50;90.70;;;;;;4983125;28;21424;-62
2022/12/23 03:06:21;;;;;;;0.32;0.10;;;11.50;90.30;;;;;;4985050;28;20039;-61
2022/12/23 03:08:49;;;;;;;0.55;0.10;;;11.60;90.40;;;;;;4982598;28;20137;-60
2022/12/23 03:11:16;;;;;;;0.55;0.30;;;11.60;90.20;;;;;;4983400;28;20038;-61
2022/12/23 03:14:03;;;;;;;1.05;0.13;;;11.60;90.20;;;;;;4976902;28;20088;-62
2022/12/23 03:16:52;;;;;;;0.68;0.20;;;11.60;90.40;;;;;;4983604;28;20031;-61
2022/12/23 03:19:18;;;;;;;1.52;0.20;;;11.60;90.30;;;;;;4984224;28;20038;-62
2022/12/23 03:21:55;;;;;;;0.03;0.03;;;11.60;90.30;;;;;;4980830;28;20031;-61
2022/12/23 03:24:21;;;;;;;0.13;0.10;;;11.70;90.30;;;;;;4981918;28;20035;-61
2022/12/23 03:27:19;;;;;;;1.15;0.10;;;11.70;90.20;;;;;;4986613;28;20565;-59
2022/12/23 03:30:05;;;;;;;0.10;0.10;;;11.70;90.40;;;;;;4973162;28;20034;-60
2022/12/23 03:32:36;;;;;;;0.00;0.00;;;11.70;90.20;;;;;;4987473;28;20034;-61
2022/12/23 03:35:04;;;;;;;0.40;0.10;;;11.70;90.30;;;;;;4984295;28;20034;-59
2022/12/23 03:37:33;;;;;;;0.10;0.10;;;11.70;90.30;;;;;;4989167;28;20034;-61
2022/12/23 03:40:09;;;;;;;0.20;0.10;;;11.70;90.30;;;;;;4985954;28;20089;-62
2022/12/23 03:42:39;;;;;;;0.10;0.10;;;11.70;90.40;;;;;;4986647;28;20038;-61
2022/12/23 03:45:28;;;;;;;0.40;0.10;;;11.80;90.40;;;;;;4982943;28;20041;-62
2022/12/23 03:48:05;;;;;;;0.30;0.10;;;11.80;90.50;;;;;;4985433;28;20037;-60
2022/12/23 03:50:31;;;;;;;0.28;0.10;;;11.80;90.40;;;;;;4983100;28;20111;-63
2022/12/23 03:53:04;;;;;;;0.08;0.08;;;11.80;90.30;;;;;;4983137;28;20046;-61
2022/12/23 03:55:37;;;;;;;0.17;0.17;;;11.80;90.40;;;;;;4986117;28;20039;-62
2022/12/23 03:58:18;;;;;;;0.10;0.10;;;11.80;90.40;;;;;;4986744;28;20101;-61
2022/12/23 04:00:55;;;;;;;0.10;0.10;;;11.80;90.50;;;;;;4984453;28;20085;-61
2022/12/23 04:03:54;;;;;;;0.20;0.10;;;11.80;90.40;;;;;;4986489;28;20491;-61
2022/12/23 04:06:22;;;;;;;0.20;0.10;;;11.80;90.60;;;;;;4986593;28;20042;-63
2022/12/23 04:08:49;;;;;;;0.17;0.10;;;11.90;90.40;;;;;;4987919;28;20113;-62
2022/12/23 04:11:15;;;;;;;0.15;0.08;;;11.90;90.50;;;;;;4987203;28;20034;-61
2022/12/23 04:13:40;;;;;;;0.05;0.03;;;11.90;90.40;;;;;;4986856;28;20470;-62
2022/12/23 04:16:06;;;;;;;0.50;0.20;;;11.90;90.50;;;;;;4986408;28;20608;-61
2022/12/23 04:18:32;;;;;;;0.90;0.10;;;11.90;90.90;;;;;;4988268;28;20506;-62
2022/12/23 04:20:58;;;;;;;0.10;0.10;;;11.90;90.50;;;;;;4987331;28;20065;-62
2022/12/23 04:23:23;;;;;;;0.00;0.00;;;11.90;90.50;;;;;;4983468;28;20034;-62
2022/12/23 04:25:49;;;;;;;0.10;0.10;;;11.90;90.50;;;;;;4984301;28;20043;-62
2022/12/23 04:28:16;;;;;;;1.15;0.10;;;12.00;90.50;;;;;;4985724;28;20526;-61
2022/12/23 04:30:42;;;;;;;0.10;0.10;;;12.00;90.50;;;;;;4985799;28;20042;-61
2022/12/23 04:33:10;;;;;;;0.10;0.10;;;12.00;90.50;;;;;;4980332;28;20422;-63
2022/12/23 04:35:35;;;;;;;0.00;0.00;;;12.00;90.50;;;;;;4983378;28;20050;-59
2022/12/23 04:38:02;;;;;;;0.17;0.10;;;12.00;90.50;;;;;;4985236;28;20088;-61
2022/12/23 04:40:27;;;;;;;0.00;0.00;;;12.00;90.50;;;;;;4985341;28;20149;-62
2022/12/23 04:42:53;;;;;;;1.50;0.10;;;12.10;90.50;;;;;;4987313;28;20117;-61
2022/12/23 04:45:18;;;;;;;0.20;0.20;;;12.10;90.50;;;;;;4985138;28;20038;-62
2022/12/23 04:47:44;;;;;;;0.00;0.00;;;12.10;90.50;;;;;;4983966;28;20050;-62
2022/12/23 04:50:14;;;;;;;0.10;0.10;;;12.10;90.50;;;;;;4983769;28;20410;-62
2022/12/23 04:52:39;;;;;;;29.10;15.38;;;12.20;90.50;;;;;;4985700;28;20038;-61
2022/12/23 04:55:05;;;;;;;2.17;1.65;;;12.10;90.40;;;;;;4986844;28;20405;-59
2022/12/23 04:57:31;;;;;;;1.35;0.77;;;12.20;90.50;;;;;;4986349;28;20089;-62
2022/12/23 04:59:56;;;;;;;0.80;0.45;;;12.20;90.40;;;;;;4985141;28;20525;-60
2022/12/23 05:02:22;;;;;;;1.02;0.28;;;12.20;90.40;;;;;;4984527;28;20505;-62
2022/12/23 05:04:48;;;;;;;0.80;0.47;;;12.20;90.40;;;;;;4985323;28;20046;-62
2022/12/23 05:07:13;;;;;;;0.30;0.30;;;12.20;90.40;;;;;;4985120;28;20046;-61
2022/12/23 05:09:39;;;;;;;1.20;0.60;;;12.20;90.40;;;;;;4985184;28;20034;-62
2022/12/23 05:12:04;;;;;;;0.47;0.47;;;12.20;90.40;;;;;;4981745;28;20042;-62
2022/12/23 05:14:30;;;;;;;0.20;0.20;;;12.30;90.40;;;;;;4984373;28;20158;-61
2022/12/23 05:16:55;;;;;;;0.60;0.17;;;12.30;90.40;;;;;;4983108;28;20038;-60
2022/12/23 05:19:21;;;;;;;0.73;0.70;;;12.30;90.40;;;;;;4984698;28;20030;-59
2022/12/23 05:21:46;;;;;;;1.83;1.20;;;12.30;90.40;;;;;;4984648;28;20529;-61
2022/12/23 05:24:12;;;;;;;1.27;1.17;;;12.30;90.50;;;;;;4982669;28;20063;-59
2022/12/23 05:26:37;;;;;;;0.95;0.80;;;12.30;90.50;;;;;;4984350;28;20042;-61
2022/12/23 05:29:04;;;;;;;1.00;0.90;;;12.30;90.50;;;;;;4987002;28;20037;-61
2022/12/23 05:31:30;;;;;;;0.98;0.50;;;12.30;90.50;;;;;;4985365;28;20382;-60
2022/12/23 05:33:55;;;;;;;0.68;0.50;;;12.30;90.50;;;;;;4984662;28;20494;-61
2022/12/23 05:36:21;;;;;;;1.50;1.40;;;12.30;90.50;;;;;;4985942;28;20030;-62
2022/12/23 05:38:47;;;;;;;1.20;1.10;;;12.30;90.50;;;;;;4983933;28;20031;-60
2022/12/23 05:41:14;;;;;;;0.90;0.77;;;12.30;90.50;;;;;;4985575;28;20084;-60
2022/12/23 05:43:40;;;;;;;0.80;0.70;;;12.30;90.50;;;;;;4983112;28;20042;-61
2022/12/23 05:46:05;;;;;;;0.73;0.55;;;12.40;90.50;;;;;;4984636;28;20443;-61
2022/12/23 05:48:31;;;;;;;1.10;0.63;;;12.40;90.60;;;;;;4980679;28;20096;-61
2022/12/23 05:50:56;;;;;;;0.40;0.40;;;12.30;90.60;;;;;;4983154;28;20601;-60
2022/12/23 05:53:23;;;;;;;0.47;0.47;;;12.40;90.60;;;;;;4983141;28;20031;-62
2022/12/23 05:55:49;;;;;;;1.80;1.70;;;12.40;90.60;;;;;;4980819;28;20085;-63
2022/12/23 05:58:14;;;;;;;0.90;0.90;;;12.40;90.60;;;;;;4985735;28;20027;-60
2022/12/23 06:00:40;;;;;;;0.50;0.50;;;12.40;90.60;;;;;;4983518;28;20038;-62
2022/12/23 06:03:05;;;;;;;1.00;1.00;;;12.40;90.60;;;;;;4984836;28;20118;-62
2022/12/23 06:05:31;;;;;;;0.68;0.50;;;12.40;90.60;;;;;;4987328;28;20046;-61
2022/12/23 06:07:59;;;;;;;0.55;0.40;;;12.40;90.60;;;;;;4983968;28;20045;-62
2022/12/23 06:10:25;;;;;;;0.20;0.20;;;12.40;90.60;;;;;;4986073;28;20035;-62
2022/12/23 06:12:50;;;;;;;0.35;0.17;;;12.40;90.60;;;;;;4984707;28;20048;-62
2022/12/23 06:15:16;;;;;;;1.08;0.20;;;12.40;90.60;;;;;;4986048;28;20117;-62
2022/12/23 06:17:41;;;;;;;0.25;0.10;;;12.40;90.60;;;;;;4984795;28;20502;-62
2022/12/23 06:20:07;;;;;;;0.22;0.20;;;12.40;90.60;;;;;;4983465;28;20027;-62
2022/12/23 06:22:33;;;;;;;1.17;0.20;;;12.40;90.60;;;;;;4983373;28;20089;-61
2022/12/23 06:24:59;;;;;;;1.17;0.10;;;12.40;90.60;;;;;;4981281;28;20052;-62
2022/12/23 06:27:24;;;;;;;0.17;0.10;;;12.40;90.60;;;;;;4980590;28;20041;-59
2022/12/23 06:29:50;;;;;;;0.10;0.10;;;12.40;90.60;;;;;;4983781;28;20026;-62
2022/12/23 06:32:15;;;;;;;0.35;0.20;;;12.50;90.70;;;;;;4982132;28;20112;-60
2022/12/23 06:34:41;;;;;;;0.08;0.08;;;12.40;90.70;;;;;;4979032;28;20093;-62
2022/12/23 06:37:06;;;;;;;0.15;0.15;;;12.40;90.70;;;;;;4981969;28;20037;-60
2022/12/23 06:39:33;;;;;;;0.08;0.05;;;12.40;90.90;;;;;;4983915;28;20062;-62
2022/12/23 06:41:58;;;;;;;0.17;0.10;;;12.40;90.70;;;;;;4984826;28;20105;-61
2022/12/23 06:44:24;;;;;;;0.60;0.10;;;12.40;90.70;;;;;;4986758;28;20034;-60
2022/12/23 06:46:49;;;;;;;0.10;0.10;;;12.50;90.70;;;;;;4984019;28;20042;-61
2022/12/23 06:49:15;;;;;;;0.10;0.10;;;12.50;90.70;;;;;;4986668;28;20401;-60
2022/12/23 06:51:40;;;;;;;0.77;0.50;;;12.50;90.70;;;;;;4981941;28;20037;-60
2022/12/23 06:54:08;;;;;;;0.95;0.20;;;12.50;90.80;;;;;;4984751;28;20066;-60
2022/12/23 06:56:33;;;;;;;0.40;0.30;;;12.50;90.80;;;;;;4982816;28;20557;-59
2022/12/23 06:58:59;;;;;;;0.30;0.25;;;12.50;90.80;;;;;;4983292;28;20122;-59
2022/12/23 07:01:25;;;;;;;0.20;0.20;;;12.50;90.80;;;;;;4984020;28;20125;-61
2022/12/23 07:03:50;;;;;;;0.32;0.20;;;12.50;90.80;;;;;;4988885;28;20042;-61
2022/12/23 07:06:16;;;;;;;0.30;0.30;;;12.50;90.90;;;;;;4985681;28;20045;-61
2022/12/23 07:08:42;;;;;;;0.80;0.50;;;12.50;90.90;;;;;;4989423;28;20023;-61
2022/12/23 07:11:07;;;;;;;2.08;1.85;;;12.50;90.90;;;;;;4984824;28;20038;-60
2022/12/23 07:13:33;;;;;;;0.93;0.93;;;12.50;90.90;;;;;;4985742;28;20062;-62
2022/12/23 07:16:07;;;;;;;0.70;0.70;;;12.50;90.90;;;;;;4983553;28;20454;-62
2022/12/23 07:18:33;;;;;;;0.40;0.40;;;12.60;91.00;;;;;;4985826;28;20061;-62
2022/12/23 07:21:00;;;;;;;0.52;0.30;;;12.50;90.90;;;;;;4985973;28;20121;-59
2022/12/23 07:23:26;;;;;;;0.73;0.25;;;12.50;91.00;;;;;;4988816;28;20030;-62
2022/12/23 07:25:51;;;;;;;0.20;0.20;;;12.50;91.00;;;;;;4987267;28;20042;-63
2022/12/23 07:28:17;;;;;;;0.30;0.30;;;12.60;91.00;;;;;;4987159;28;20038;-62
2022/12/23 07:30:42;;;;;;;0.65;0.20;;;12.60;91.10;;;;;;4986950;28;20528;-62
2022/12/23 07:33:08;;;;;;;0.20;0.20;;;12.60;91.10;;;;;;4986688;28;20030;-61
2022/12/23 07:35:34;;;;;;;0.20;0.20;;;12.60;91.10;;;;;;4989054;28;20038;-62
2022/12/23 07:37:59;;;;;;;0.45;0.30;;;12.60;91.00;;;;;;4989903;28;20038;-60
2022/12/23 07:40:25;;;;;;;1.30;0.40;;;12.60;91.10;;;;;;4986757;28;20042;-60
2022/12/23 07:42:57;;;;;;;1.00;0.52;;;12.60;91.10;;;;;;4983551;28;20033;-60
2022/12/23 07:45:23;;;;;;;0.30;0.30;;;12.60;91.10;;;;;;4976504;28;20311;-61
2022/12/23 07:47:53;;;;;;;0.40;0.40;;;12.70;91.10;;;;;;4975401;28;20165;-60
2022/12/23 07:50:19;;;;;;;0.25;0.25;;;12.70;91.20;;;;;;4978722;28;20130;-62
2022/12/23 07:52:44;;;;;;;0.50;0.50;;;12.70;91.10;;;;;;4975450;28;20042;-63
2022/12/23 07:55:10;;;;;;;1.63;0.50;;;12.70;91.40;;;;;;4983372;28;20066;-63
2022/12/23 07:57:36;;;;;;;1.70;1.60;;;12.70;91.10;;;;;;4980980;28;20034;-63
2022/12/23 08:00:10;;;;;;;1.13;1.02;;;12.70;91.00;;;;;;4980565;28;20042;-63
2022/12/23 08:02:36;;;;;;;0.73;0.73;;;12.80;91.10;;;;;;4980392;28;20034;-63
2022/12/23 08:05:02;;;;;;;1.48;1.38;;;12.80;91.00;;;;;;4978191;28;20048;-62
2022/12/23 08:07:28;;;;;;;3.50;2.10;;;12.80;91.00;;;;;;4982257;28;20118;-62
2022/12/23 08:09:53;;;;;;;1.20;1.10;;;12.80;91.00;;;;;;4981708;28;20038;-62
2022/12/23 08:12:19;;;;;;;1.05;0.60;;;12.80;91.00;;;;;;4979710;28;20518;-63
2022/12/23 08:14:44;;;;;;;0.40;0.40;;;12.80;91.00;;;;;;4982069;28;20046;-63
2022/12/23 08:17:10;;;;;;;0.50;0.50;;;12.80;91.00;;;;;;4983615;28;20030;-62
2022/12/23 08:19:36;;;;;;;2.00;1.40;;;12.80;91.10;;;;;;4980110;28;20459;-63
2022/12/23 08:22:02;;;;;;;1.10;0.98;;;12.80;91.10;;;;;;4985482;28;20446;-63
2022/12/23 08:24:27;;;;;;;1.05;0.70;;;12.80;91.10;;;;;;4977547;28;21370;-63
2022/12/23 08:26:53;;;;;;;2.10;1.90;;;12.80;91.20;;;;;;4978183;28;20498;-63
2022/12/23 08:29:19;;;;;;;1.77;1.63;;;12.70;91.20;;;;;;4979129;28;20168;-63
2022/12/23 08:31:44;;;;;;;0.75;0.60;;;12.80;91.20;;;;;;4977911;28;20027;-64
2022/12/23 08:34:11;;;;;;;1.92;0.50;;;12.80;91.20;;;;;;4981452;28;20110;-63
2022/12/23 08:36:38;;;;;;;0.55;0.50;;;12.80;91.20;;;;;;4981189;28;20971;-62
2022/12/23 08:39:07;;;;;;;0.88;0.43;;;12.80;91.20;;;;;;4976806;28;20065;-63
2022/12/23 08:41:37;;;;;;;0.60;0.40;;;12.80;91.20;;;;;;4980319;28;20038;-63
2022/12/23 08:44:03;;;;;;;0.40;0.40;;;12.90;91.30;;;;;;4974614;28;20366;-63
2022/12/23 08:46:28;;;;;;;0.40;0.40;;;12.80;91.20;;;;;;4970723;28;20081;-63
2022/12/23 08:48:55;;;;;;;1.02;0.77;;;12.90;91.30;;;;;;4979681;28;20104;-63
2022/12/23 08:51:22;;;;;;;0.60;0.60;;;12.90;91.20;;;;;;4979458;28;20530;-63
2022/12/23 08:53:48;;;;;;;1.13;0.80;;;12.90;91.30;;;;;;4940901;28;1108693;-62
2022/12/23 08:56:18;;;;;;;1.10;0.52;;;12.90;91.20;;;;;;4983051;28;20041;-64
2022/12/23 08:58:45;;;;;;;0.70;0.70;;;12.90;91.30;;;;;;4981893;28;20066;-63
2022/12/23 09:01:13;;;;;;;1.30;0.70;;;12.90;91.30;;;;;;4974132;28;20046;-63
2022/12/23 09:03:42;;;;;;;1.25;0.65;;;12.90;91.30;;;;;;4980339;28;20109;-62
2022/12/23 09:06:14;;;;;;;3.55;0.77;;;13.00;91.30;;;;;;4982977;28;20410;-63
2022/12/23 09:08:40;;;;;;;1.88;0.60;;;12.90;91.30;;;;;;4985385;28;20109;-62
2022/12/23 09:11:14;;;;;;;0.40;0.40;;;13.00;91.20;;;;;;4979635;28;20404;-61
2022/12/23 09:13:41;;;;;;;1.15;0.50;;;13.00;91.30;;;;;;4984050;28;20125;-61
2022/12/23 09:16:07;;;;;;;0.98;0.50;;;13.00;91.20;;;;;;4980939;28;20065;-63
2022/12/23 09:18:33;;;;;;;0.45;0.40;;;13.00;91.20;;;;;;4980300;28;20030;-61
2022/12/23 09:21:01;;;;;;;0.80;0.50;;;13.00;91.20;;;;;;4979271;28;20325;-62
2022/12/23 09:23:27;;;;;;;0.73;0.40;;;13.00;91.20;;;;;;4983331;28;20042;-63
2022/12/23 09:25:54;;;;;;;0.30;0.30;;;13.10;91.30;;;;;;4981532;28;20499;-60
2022/12/23 09:28:20;;;;;;;0.38;0.38;;;13.00;91.20;;;;;;4979549;28;20563;-62
2022/12/23 09:30:46;;;;;;;0.47;0.40;;;13.10;91.30;;;;;;4982829;28;20058;-63
2022/12/23 09:33:12;;;;;;;0.20;0.20;;;13.10;91.30;;;;;;4978707;28;20417;-62
2022/12/23 09:35:37;;;;;;;0.70;0.22;;;13.10;91.30;;;;;;4980526;28;20088;-61
2022/12/23 09:38:03;;;;;;;0.30;0.30;;;13.10;91.20;;;;;;4981871;28;20491;-62
2022/12/23 09:40:32;;;;;;;0.35;0.32;;;13.10;91.20;;;;;;4983686;28;20425;-61
2022/12/23 09:43:32;;;;;;;2.25;0.60;;;13.10;91.20;;;;;;4984113;28;20510;-64
2022/12/23 09:46:22;;;;;;;0.30;0.30;;;13.10;91.30;;;;;;4977805;28;20066;-61
2022/12/23 09:49:04;;;;;;;0.57;0.30;;;13.20;91.30;;;;;;4977830;28;20076;-62
2022/12/23 09:51:31;;;;;;;0.70;0.30;;;13.20;91.20;;;;;;4982190;28;20038;-61
2022/12/23 09:54:20;;;;;;;0.35;0.30;;;13.20;91.10;;;;;;4971483;28;20051;-62
2022/12/23 09:56:51;;;;;;;0.52;0.50;;;13.20;91.20;;;;;;4979303;28;20286;-63
2022/12/23 09:59:40;;;;;;;0.30;0.30;;;13.30;91.10;;;;;;4978821;28;20070;-63
2022/12/23 10:02:25;;;;;;;0.40;0.40;;;13.30;91.20;;;;;;4974280;28;20031;-62
2022/12/23 10:05:06;;;;;;;0.65;0.60;;;13.30;91.10;;;;;;4951792;28;20042;-62
2022/12/23 10:07:54;;;;;;;0.98;0.50;;;13.30;91.10;;;;;;4980380;28;20045;-62
2022/12/23 10:10:35;;;;;;;3.55;0.50;;;13.40;91.00;;;;;;4978352;28;20034;-61
2022/12/23 10:13:04;;;;;;;0.50;0.50;;;13.30;91.00;;;;;;4981219;28;20062;-63
2022/12/23 10:15:41;;;;;;;0.45;0.40;;;13.30;91.00;;;;;;4977434;28;20043;-62
2022/12/23 10:18:44;;;;;;;1.52;0.82;;;13.40;91.00;;;;;;4978167;28;20046;-64
2022/12/23 10:21:39;;;;;;;1.27;0.77;;;13.40;91.00;;;;;;4980525;28;20113;-63
2022/12/23 10:24:14;;;;;;;0.93;0.60;;;13.40;91.00;;;;;;4958141;28;21764;-62
2022/12/23 10:26:51;;;;;;;1.80;1.20;;;13.40;90.90;;;;;;4977888;28;20030;-63
2022/12/23 10:29:25;;;;;;;1.05;0.95;;;13.40;90.90;;;;;;4981358;28;20069;-63
2022/12/23 10:32:29;;;;;;;0.90;0.90;;;13.30;90.90;;;;;;4973794;28;20105;-63
2022/12/23 10:35:09;;;;;;;1.40;1.00;;;13.40;91.00;;;;;;4980662;28;20086;-62
2022/12/23 10:37:54;;;;;;;0.93;0.80;;;13.40;90.90;;;;;;4981794;28;20037;-62
2022/12/23 10:40:26;;;;;;;1.77;1.02;;;13.40;91.00;;;;;;4979190;28;20034;-63
2022/12/23 10:43:25;;;;;;;1.98;1.20;;;13.40;91.00;;;;;;4978409;28;20402;-62
2022/12/23 10:46:18;;;;;;;1.00;0.77;;;13.40;91.00;;;;;;4975916;28;20039;-63
2022/12/23 10:49:13;;;;;;;2.30;1.30;;;13.40;91.00;;;;;;4979353;28;20117;-63
2022/12/23 10:51:52;;;;;;;0.80;0.80;;;13.40;91.00;;;;;;4977603;28;20214;-61
2022/12/23 10:54:31;;;;;;;0.60;0.60;;;13.40;91.00;;;;;;4981162;28;20034;-63
2022/12/23 10:56:57;;;;;;;1.67;1.20;;;13.40;91.00;;;;;;4979692;28;20030;-62
2022/12/23 10:59:26;;;;;;;0.60;0.60;;;13.40;91.00;;;;;;4964614;28;20034;-63
2022/12/23 11:02:01;;;;;;;0.30;0.30;;;13.40;91.00;;;;;;4977083;28;20411;-63
2022/12/23 11:04:34;;;;;;;0.28;0.25;;;13.50;91.00;;;;;;4976874;28;20129;-62
2022/12/23 11:07:01;;;;;;;1.55;0.30;;;13.40;91.00;;;;;;4986749;28;20459;-63
2022/12/23 11:09:36;;;;;;;0.10;0.10;;;13.50;91.00;;;;;;4986270;28;20517;-62
2022/12/23 11:12:05;;;;;;;0.10;0.10;;;13.50;91.00;;;;;;4984577;28;20034;-62
2022/12/23 11:14:49;;;;;;;0.22;0.10;;;13.50;90.90;;;;;;4984623;28;20034;-60
2022/12/23 11:17:30;;;;;;;0.28;0.28;;;13.50;91.00;;;;;;4975718;28;20493;-62
2022/12/23 11:20:16;;;;;;;0.13;0.10;;;13.50;91.00;;;;;;4978064;28;22156;-60
2022/12/23 11:22:53;;;;;;;0.40;0.20;;;13.50;91.00;;;;;;4983149;28;20081;-62
2022/12/23 11:25:38;;;;;;;0.10;0.10;;;13.50;91.00;;;;;;4982664;28;20085;-62
2022/12/23 11:28:09;;;;;;;0.27;0.27;;;13.60;91.10;;;;;;4985795;28;20030;-63
2022/12/23 11:30:57;;;;;;;0.10;0.10;;;13.60;91.00;;;;;;4978368;28;20030;-62
2022/12/23 11:33:30;;;;;;;0.20;0.20;;;13.60;91.10;;;;;;4976083;28;20043;-63
2022/12/23 11:36:11;;;;;;;0.30;0.30;;;13.60;91.00;;;;;;4981925;28;20542;-62
2022/12/23 11:38:51;;;;;;;0.20;0.20;;;13.60;91.00;;;;;;4983383;28;20279;-63
2022/12/23 11:41:21;;;;;;;0.20;0.13;;;13.60;91.00;;;;;;4982473;28;20613;-63
2022/12/23 11:44:00;;;;;;;0.50;0.20;;;13.60;90.90;;;;;;4983963;28;20034;-63
2022/12/23 11:46:29;;;;;;;0.32;0.20;;;13.70;91.00;;;;;;4980278;28;20122;-62
2022/12/23 11:49:18;;;;;;;1.48;0.20;;;13.70;90.90;;;;;;4977512;28;20038;-64
2022/12/23 11:52:10;;;;;;;0.32;0.20;;;13.60;90.90;;;;;;4989354;28;20050;-62
2022/12/23 11:54:37;;;;;;;0.30;0.25;;;13.70;90.80;;;;;;4984114;28;20050;-62
2022/12/23 11:57:07;;;;;;;0.77;0.10;;;13.70;90.80;;;;;;4985127;28;20042;-63
2022/12/23 11:59:35;;;;;;;0.30;0.30;;;13.70;90.80;;;;;;4982077;28;20117;-63
2022/12/23 12:02:13;;;;;;;1.23;0.85;;;13.70;90.80;;;;;;4990335;28;20038;-63
2022/12/23 12:04:40;;;;;;;0.43;0.38;;;13.60;90.80;;;;;;4987324;28;20034;-63
2022/12/23 12:07:10;;;;;;;1.02;0.30;;;13.60;90.80;;;;;;4988610;28;20022;-64
2022/12/23 12:09:39;;;;;;;0.50;0.50;;;13.60;90.80;;;;;;4987518;28;20509;-63
2022/12/23 12:12:12;;;;;;;0.45;0.10;;;13.60;90.80;;;;;;4985715;28;20089;-61
2022/12/23 12:14:43;;;;;;;0.20;0.20;;;13.60;90.80;;;;;;4988631;28;20514;-62
2022/12/23 12:17:37;;;;;;;1.02;0.30;;;13.60;90.80;;;;;;4987341;28;20050;-64
2022/12/23 12:20:16;;;;;;;1.50;0.40;;;13.60;90.90;;;;;;4979002;28;20050;-62
2022/12/23 12:22:53;;;;;;;16.60;1.05;;;13.60;90.80;;;;;;4986049;28;20050;-63
2022/12/23 12:25:43;;;;;;;5.05;0.60;;;13.60;90.80;;;;;;4985597;28;20526;-63
2022/12/23 12:28:17;;;;;;;1.23;0.28;;;13.60;90.80;;;;;;4987715;28;20117;-63
2022/12/23 12:30:50;;;;;;;0.65;0.40;;;13.60;90.80;;;;;;4988033;28;20042;-63
2022/12/23 12:33:32;;;;;;;0.40;0.30;;;13.60;90.80;;;;;;4989257;28;20053;-63
2022/12/23 12:36:16;;;;;;;0.30;0.20;;;13.60;90.80;;;;;;4987853;28;20050;-64
2022/12/23 12:38:47;;;;;;;1.15;0.30;;;13.60;90.90;;;;;;4986026;28;20446;-64
2022/12/23 12:41:15;;;;;;;0.28;0.22;;;13.60;90.80;;;;;;4988186;28;20069;-63
2022/12/23 12:43:52;;;;;;;0.65;0.40;;;13.50;90.90;;;;;;4986361;28;20506;-64
2022/12/23 12:46:28;;;;;;;1.08;0.47;;;13.60;91.30;;;;;;4986442;28;20043;-64
2022/12/23 12:49:04;;;;;;;0.77;0.20;;;13.50;90.90;;;;;;4986420;28;20031;-62
2022/12/23 12:51:51;;;;;;;0.50;0.20;;;13.50;90.90;;;;;;4987384;28;20045;-63
2022/12/23 12:54:32;;;;;;;1.63;0.30;;;13.50;91.00;;;;;;4985835;28;20643;-64
2022/12/23 12:57:02;;;;;;;1.90;0.80;;;13.50;91.10;;;;;;4986701;28;20038;-61
2022/12/23 12:59:32;;;;;;;1.42;0.90;;;13.50;91.00;;;;;;4984874;28;20046;-63
2022/12/23 13:02:29;;;;;;;1.40;1.20;;;13.50;91.10;;;;;;4985978;28;20106;-63
2022/12/23 13:05:16;;;;;;;1.00;0.75;;;13.50;91.20;;;;;;4987286;28;20101;-63
2022/12/23 13:08:03;;;;;;;1.25;0.80;;;13.50;91.00;;;;;;4989555;28;20082;-62
2022/12/23 13:10:29;;;;;;;0.65;0.65;;;13.50;91.20;;;;;;4983650;28;20054;-63
2022/12/23 13:13:17;;;;;;;0.57;0.57;;;13.40;91.00;;;;;;4986653;28;20038;-63
2022/12/23 13:15:53;;;;;;;1.63;1.40;;;13.40;91.10;;;;;;4985994;28;20034;-62
2022/12/23 13:18:35;;;;;;;1.70;1.60;;;13.40;91.00;;;;;;4988149;28;20042;-63
2022/12/23 13:21:25;;;;;;;1.70;1.60;;;13.40;91.00;;;;;;4983553;28;20030;-63
2022/12/23 13:24:30;;;;;;;2.22;1.90;;;13.30;91.10;;;;;;4984190;28;20034;-62
2022/12/23 13:27:11;;;;;;;0.88;0.88;;;13.30;91.10;;;;;;4977077;28;20074;-63
2022/12/23 13:30:00;;;;;;;0.90;0.70;;;13.20;91.00;;;;;;4981059;28;20039;-63
2022/12/23 13:33:05;;;;;;;2.05;0.80;;;13.20;91.10;;;;;;4973531;28;20498;-63
2022/12/23 13:35:52;;;;;;;0.57;0.57;;;13.20;91.10;;;;;;4986809;28;20227;-63
2022/12/23 13:38:47;;;;;;;0.93;0.50;;;13.10;91.00;;;;;;4985916;28;20030;-63